Rickmers New Orleans — V7FF2 — position and weather

sailwx.info

Track history (hours):
 
Tides and Currents Weather Stations Pressure Air Temp Water Temp Dewpoint Dewpoint Depression Visibility Wind Speed Wind Dir Waves Ship Positions

Rickmers New Orleans

Last reported at 2015-Feb-26 18:33 UTC. Time now 2015-Mar-03 15:02 UTC.
Position N 50°17' W 001°17'.

Length 192.9 m; beam 27.8 m; draft 11.2 m.

Type: Ship. MMSI: 538001922.

Date/timePositionNaut miles runAvg speedWind from/ knotsBaromVisibWave heightAir tempDewpointWater temp
2015-Feb-26 18:33N 50°17' W 001°17'1413.2
2015-Feb-26 17:27N 50°21' W 000°55'3411.5
2015-Feb-26 14:29N 50°31' W 000°04'1010.6
2015-Feb-26 13:32N 50°33' E 000°12'1010.5
2015-Feb-26 12:33N 50°36' E 000°27'1211.6
2015-Feb-26 11:33N 50°42' E 000°43'1312.4
2015-Feb-26 10:33N 50°49' E 000°59'1312.7
2015-Feb-26 09:33N 50°57' E 001°15'1212.4
2015-Feb-26 08:34N 51°05' E 001°29'1010.4
2015-Feb-26 07:33N 51°12' E 001°42'1110.7
2015-Feb-26 06:33N 51°21' E 001°50'1110.9
2015-Feb-26 05:34N 51°30' E 001°60'1211.8
2015-Feb-26 04:33N 51°39' E 002°13'1512.7
2015-Feb-26 03:24N 51°50' E 002°29'1513.7
2015-Feb-26 02:16N 52°01' E 002°47'1013.6
2015-Feb-26 01:33N 52°02' E 003°02'1413.7
2015-Feb-26 00:33N 52°03' E 003°25'1413.7
2015-Feb-25 23:33N 52°03' E 003°47'10 9.9
2015-Feb-25 22:33N 51°60' E 004°02'1010.3
2015-Feb-25 21:34N 51°54' E 004°16'1 1.2
2015-Feb-25 20:31N 51°54' E 004°18'0 0.0
2015-Feb-25 19:31N 51°54' E 004°18'0 0.0
2015-Feb-25 18:31N 51°54' E 004°18'0 0.0
2015-Feb-25 17:28N 51°54' E 004°18'0 0.0
2015-Feb-25 16:28N 51°54' E 004°18'0 0.0
2015-Feb-25 15:28N 51°54' E 004°18'0 0.0
2015-Feb-25 14:31N 51°54' E 004°18'0 0.0
2015-Feb-25 13:31N 51°54' E 004°18'0 0.0
2015-Feb-25 12:28N 51°54' E 004°18'0 0.0
2015-Feb-25 11:31N 51°54' E 004°18'0 0.0
2015-Feb-25 10:31N 51°54' E 004°18'0 0.0
2015-Feb-25 09:31N 51°54' E 004°18'0 0.0
2015-Feb-25 08:31N 51°54' E 004°18'0 0.0
2015-Feb-25 07:31N 51°54' E 004°18'0 0.0
2015-Feb-25 06:31N 51°54' E 004°18'0 0.0
2015-Feb-25 05:25N 51°54' E 004°18'0 0.0
2015-Feb-25 04:33N 51°54' E 004°18'2 2.4
2015-Feb-25 03:33N 51°55' E 004°14'8 8.0
2015-Feb-25 02:33N 51°59' E 004°03'9 8.5
2015-Feb-25 01:33N 51°58' E 003°50'2 2.2
2015-Feb-25 00:33N 51°60' E 003°53'8 7.6
2015-Feb-24 23:33N 52°03' E 003°42'1111.1
2015-Feb-24 22:32N 52°09' E 003°26'7510.6
2015-Feb-24 15:29N 53°14' E 004°26'1112.0
2015-Feb-24 14:33N 53°24' E 004°34'1111.0
2015-Feb-24 13:33N 53°31' E 004°48'1111.2
2015-Feb-24 12:33N 53°36' E 005°05'1110.6
2015-Feb-24 11:33N 53°39' E 005°22'1313.0
2015-Feb-24 10:33N 53°43' E 005°43'1212.3
2015-Feb-24 09:33N 53°47' E 006°03'4413.0
2015-Feb-24 06:12N 53°58' E 007°15'913.3
2015-Feb-24 05:33N 53°60' E 007°29'1313.1
2015-Feb-24 04:33N 54°01' E 007°51'1313.2
2015-Feb-24 03:33N 54°00' E 008°13'1212.4
2015-Feb-24 02:34N 53°58' E 008°34'1212.2
2015-Feb-24 01:33N 53°50' E 008°50'1211.8
2015-Feb-24 00:34N 53°53' E 009°10'1414.2
2015-Feb-23 23:33N 53°44' E 009°28'1414.1
2015-Feb-23 22:33N 53°34' E 009°45'8 8.4
2015-Feb-23 21:33N 53°30' E 009°58'1 1.2
2015-Feb-23 20:31N 53°29' E 009°59'0 0.0
2015-Feb-23 19:28N 53°29' E 009°59'0 0.0
2015-Feb-23 18:31N 53°29' E 009°59'0 0.0
2015-Feb-23 17:31N 53°29' E 009°59'0 0.0
2015-Feb-23 16:31N 53°29' E 009°59'0 0.0
2015-Feb-23 15:31N 53°29' E 009°59'0 0.0
2015-Feb-23 14:31N 53°29' E 009°59'0 0.0
2015-Feb-23 13:25N 53°29' E 009°59'0 0.0
2015-Feb-23 12:31N 53°29' E 009°59'0 0.0
2015-Feb-23 11:31N 53°29' E 009°59'0 0.0
2015-Feb-23 10:31N 53°29' E 009°59'0 0.0
2015-Feb-23 09:31N 53°29' E 009°59'0 0.0
2015-Feb-23 08:31N 53°29' E 009°59'0 0.0
2015-Feb-23 07:31N 53°29' E 009°59'0 0.0
2015-Feb-23 06:31N 53°29' E 009°59'0 0.0
2015-Feb-23 05:31N 53°29' E 009°59'0 0.0
2015-Feb-23 04:31N 53°29' E 009°59'0 0.0
2015-Feb-23 03:31N 53°29' E 009°59'0 0.0
2015-Feb-23 02:31N 53°29' E 009°59'0 0.0
2015-Feb-23 01:28N 53°29' E 009°59'0 0.0
2015-Feb-23 00:25N 53°29' E 009°59'0 0.0
2015-Feb-22 23:31N 53°29' E 009°59'0 0.0
2015-Feb-22 22:31N 53°29' E 009°59'0 0.0
2015-Feb-22 21:31N 53°29' E 009°59'0 0.0
2015-Feb-22 20:31N 53°29' E 009°59'0 0.0
2015-Feb-22 19:31N 53°29' E 009°59'0 0.0
2015-Feb-22 18:28N 53°29' E 009°59'0 0.0
2015-Feb-22 17:31N 53°29' E 009°59'0 0.0
2015-Feb-22 16:28N 53°29' E 009°59'0 0.0
2015-Feb-22 15:31N 53°29' E 009°59'0 0.0
2015-Feb-22 14:31N 53°29' E 009°59'0 0.0
2015-Feb-22 13:31N 53°29' E 009°59'0 0.0
2015-Feb-22 12:31N 53°29' E 009°59'0 0.0
2015-Feb-22 11:31N 53°29' E 009°59'0 0.0
2015-Feb-22 10:31N 53°29' E 009°59'0 0.0
2015-Feb-22 09:28N 53°29' E 009°59'0 0.0
2015-Feb-22 08:31N 53°29' E 009°59'0 0.0
2015-Feb-22 07:31N 53°29' E 009°59'0 0.0
2015-Feb-22 06:31N 53°29' E 009°59'0 0.0
2015-Feb-22 05:31N 53°29' E 009°59'0 0.1
2015-Feb-22 04:33N 53°29' E 009°59'3 2.9
2015-Feb-22 03:33N 53°32' E 009°56'9 9.3
2015-Feb-22 02:33N 53°34' E 009°41'1211.6
2015-Feb-22 01:33N 53°43' E 009°29'1110.6
2015-Feb-22 00:33N 53°52' E 009°18'1110.5
2015-Feb-21 23:33N 53°51' E 009°00'1010.5
2015-Feb-21 22:34N 53°53' E 008°43'1312.6
2015-Feb-21 21:34N 53°59' E 008°24'1616.0
2015-Feb-21 20:33N 53°58' E 007°57'1919.2
2015-Feb-21 19:33N 53°54' E 007°25'4018.0
2015-Feb-21 17:22N 53°44' E 006°20'1418.0
2015-Feb-21 16:34N 53°40' E 005°57'1817.8
2015-Feb-21 15:33N 53°34' E 005°29'1717.1
2015-Feb-21 14:34N 53°29' E 005°01'1716.0
2015-Feb-21 13:28N 53°19' E 004°38'3816.3
2015-Feb-21 11:08N 52°45' E 004°07'3215.7
2015-Feb-21 09:06N 52°22' E 003°32'1115.5
2015-Feb-21 08:22N 52°10' E 003°31'1215.1
2015-Feb-21 07:33N 51°59' E 003°23'1615.6
2015-Feb-21 06:33N 51°44' E 003°15'1414.3
2015-Feb-21 05:34N 51°31' E 003°05'8 8.1
2015-Feb-21 04:33N 51°25' E 003°12'1414.0
2015-Feb-21 03:33N 51°26' E 003°34'9 8.7
2015-Feb-21 02:33N 51°21' E 003°47'1010.0
2015-Feb-21 01:33N 51°26' E 004°01'9 9.4
2015-Feb-21 00:33N 51°21' E 004°14'2 2.1
2015-Feb-20 23:34N 51°21' E 004°17'0 0.3
2015-Feb-20 22:34N 51°21' E 004°18'4 4.4
2015-Feb-20 21:33N 51°17' E 004°21'1 1.0
2015-Feb-20 20:33N 51°17' E 004°23'0 0.0
2015-Feb-20 19:33N 51°17' E 004°23'0 0.0
2015-Feb-20 18:33N 51°17' E 004°23'0 0.0
2015-Feb-20 17:33N 51°17' E 004°23'0 0.0
2015-Feb-20 16:33N 51°17' E 004°23'0 0.0
2015-Feb-20 15:33N 51°17' E 004°23'0 0.0
2015-Feb-20 14:33N 51°17' E 004°23'0 0.0
2015-Feb-20 13:33N 51°17' E 004°23'0 0.0
2015-Feb-20 12:33N 51°17' E 004°23'0 0.0
2015-Feb-20 11:33N 51°17' E 004°23'0 0.0
2015-Feb-20 10:32N 51°17' E 004°23'0 0.0
2015-Feb-20 09:32N 51°17' E 004°23'0 0.0
2015-Feb-20 08:32N 51°17' E 004°23'0 0.0
2015-Feb-20 07:32N 51°17' E 004°23'0 0.0
2015-Feb-20 06:29N 51°17' E 004°23'0 0.0
2015-Feb-20 05:29N 51°17' E 004°23'0 0.0
2015-Feb-20 04:32N 51°17' E 004°23'0 0.0
2015-Feb-20 03:32N 51°17' E 004°23'0 0.0
2015-Feb-20 02:32N 51°17' E 004°23'0 0.0
2015-Feb-20 01:29N 51°17' E 004°23'0 0.0
2015-Feb-20 00:32N 51°17' E 004°23'0 0.0
2015-Feb-19 23:32N 51°17' E 004°23'0 0.0
2015-Feb-19 22:32N 51°17' E 004°23'0 0.0
2015-Feb-19 21:32N 51°17' E 004°23'0 0.0
2015-Feb-19 20:32N 51°17' E 004°23'0 0.0
2015-Feb-19 19:32N 51°17' E 004°23'0 0.0
2015-Feb-19 18:32N 51°17' E 004°23'0 0.0
2015-Feb-19 17:32N 51°17' E 004°23'0 0.0
2015-Feb-19 16:32N 51°17' E 004°23'0 0.0
2015-Feb-19 15:32N 51°17' E 004°23'0 0.0
2015-Feb-19 14:32N 51°17' E 004°23'0 0.0
2015-Feb-19 13:32N 51°17' E 004°23'0 0.0
2015-Feb-19 12:32N 51°17' E 004°23'0 0.0
2015-Feb-19 11:32N 51°17' E 004°23'0 0.0
2015-Feb-19 10:32N 51°17' E 004°23'0 0.0
2015-Feb-19 09:32N 51°17' E 004°23'0 0.0
2015-Feb-19 08:32N 51°17' E 004°23'0 0.0
2015-Feb-19 07:32N 51°17' E 004°23'0 0.0
2015-Feb-19 06:32N 51°17' E 004°23'0 0.0
2015-Feb-19 05:32N 51°17' E 004°23'0 0.0
2015-Feb-19 04:32N 51°17' E 004°23'0 0.0
2015-Feb-19 03:32N 51°17' E 004°23'0 0.0
2015-Feb-19 02:32N 51°17' E 004°23'0 0.0
2015-Feb-19 01:32N 51°17' E 004°23'0 0.0
2015-Feb-19 00:32N 51°17' E 004°23'0 0.0
2015-Feb-18 23:32N 51°17' E 004°23'0 0.0
2015-Feb-18 22:32N 51°17' E 004°23'0 0.0
2015-Feb-18 21:32N 51°17' E 004°23'0 0.0
2015-Feb-18 20:32N 51°17' E 004°23'0 0.0
2015-Feb-18 19:32N 51°17' E 004°23'0 0.0
2015-Feb-18 18:32N 51°17' E 004°23'0 0.0
2015-Feb-18 17:29N 51°17' E 004°23'0 0.0
2015-Feb-18 16:32N 51°17' E 004°23'0 0.0
2015-Feb-18 15:32N 51°17' E 004°23'0 0.0
2015-Feb-18 14:32N 51°17' E 004°23'0 0.0
2015-Feb-18 13:32N 51°17' E 004°23'0 0.0
2015-Feb-18 12:32N 51°17' E 004°23'0 0.0
2015-Feb-18 11:29N 51°17' E 004°23'0 0.0
2015-Feb-18 10:32N 51°17' E 004°23'0 0.0
2015-Feb-18 09:32N 51°17' E 004°23'0 0.0
2015-Feb-18 08:32N 51°17' E 004°23'0 0.0
2015-Feb-18 07:32N 51°17' E 004°23'0 0.0
2015-Feb-18 06:32N 51°17' E 004°23'0 0.0
2015-Feb-18 05:32N 51°17' E 004°23'0 0.0
2015-Feb-18 04:32N 51°17' E 004°23'0 0.0
2015-Feb-18 03:32N 51°17' E 004°23'0 0.0
2015-Feb-18 02:29N 51°17' E 004°23'0 0.0
2015-Feb-18 01:29N 51°17' E 004°23'0 0.0
2015-Feb-18 00:32N 51°17' E 004°23'0 0.0
2015-Feb-17 23:32N 51°17' E 004°23'0 0.0
2015-Feb-17 22:32N 51°17' E 004°23'0 0.0
2015-Feb-17 21:32N 51°17' E 004°23'0 0.0
2015-Feb-17 20:32N 51°17' E 004°23'0 0.0
2015-Feb-17 19:32N 51°17' E 004°23'0 0.0
2015-Feb-17 17:32N 51°17' E 004°23'0 0.0
2015-Feb-17 16:32N 51°17' E 004°23'0 0.0
2015-Feb-17 15:32N 51°17' E 004°23'0 0.0
2015-Feb-17 14:32N 51°17' E 004°23'0 0.0
2015-Feb-17 13:32N 51°17' E 004°23'0 0.3
2015-Feb-17 12:34N 51°17' E 004°22'4 4.0
2015-Feb-17 11:34N 51°20' E 004°18'1 0.9
2015-Feb-17 10:34N 51°21' E 004°17'0 0.5
2015-Feb-17 09:33N 51°21' E 004°16'5 4.6
2015-Feb-17 08:33N 51°24' E 004°11'9 9.3
2015-Feb-17 07:33N 51°23' E 003°56'1110.6
2015-Feb-17 06:34N 51°26' E 003°40'8 8.2
2015-Feb-17 05:34N 51°25' E 003°27'9 9.0
2015-Feb-17 04:33N 51°24' E 003°13'10 9.7
2015-Feb-17 03:33N 51°23' E 002°57'1111.1
2015-Feb-17 02:33N 51°22' E 002°40'7 6.7
2015-Feb-17 01:33N 51°22' E 002°29'9 8.6
2015-Feb-17 00:29N 51°17' E 002°16'1011.0
2015-Feb-16 23:33N 51°12' E 002°02'1212.0
2015-Feb-16 22:33N 51°06' E 001°46'1313.1
2015-Feb-16 21:33N 50°56' E 001°31'1814.7
2015-Feb-16 20:20N 50°41' E 001°17'  
Track history (hours):
 
Tides and Currents Weather Stations Pressure Air Temp Water Temp Dewpoint Dewpoint Depression Visibility Wind Speed Wind Dir Waves Ship Positions

Rickmers New Orleans

Last reported at 2015-Feb-26 18:33 UTC. Time now 2015-Mar-03 15:02 UTC.
Position N 50°17' W 001°17'.

Length 192.9 m; beam 27.8 m; draft 11.2 m.

Type: Ship. MMSI: 538001922.

Date/timePositionNaut miles runAvg speedWind from/ knotsBaromVisibWave heightAir tempDewpointWater temp
2015-Feb-26 18:33N 50°17' W 001°17'1413.2
2015-Feb-26 17:27N 50°21' W 000°55'3411.5
2015-Feb-26 14:29N 50°31' W 000°04'1010.6
2015-Feb-26 13:32N 50°33' E 000°12'1010.5
2015-Feb-26 12:33N 50°36' E 000°27'1211.6
2015-Feb-26 11:33N 50°42' E 000°43'1312.4
2015-Feb-26 10:33N 50°49' E 000°59'1312.7
2015-Feb-26 09:33N 50°57' E 001°15'1212.4
2015-Feb-26 08:34N 51°05' E 001°29'1010.4
2015-Feb-26 07:33N 51°12' E 001°42'1110.7
2015-Feb-26 06:33N 51°21' E 001°50'1110.9
2015-Feb-26 05:34N 51°30' E 001°60'1211.8
2015-Feb-26 04:33N 51°39' E 002°13'1512.7
2015-Feb-26 03:24N 51°50' E 002°29'1513.7
2015-Feb-26 02:16N 52°01' E 002°47'1013.6
2015-Feb-26 01:33N 52°02' E 003°02'1413.7
2015-Feb-26 00:33N 52°03' E 003°25'1413.7
2015-Feb-25 23:33N 52°03' E 003°47'10 9.9
2015-Feb-25 22:33N 51°60' E 004°02'1010.3
2015-Feb-25 21:34N 51°54' E 004°16'1 1.2
2015-Feb-25 20:31N 51°54' E 004°18'0 0.0
2015-Feb-25 19:31N 51°54' E 004°18'0 0.0
2015-Feb-25 18:31N 51°54' E 004°18'0 0.0
2015-Feb-25 17:28N 51°54' E 004°18'0 0.0
2015-Feb-25 16:28N 51°54' E 004°18'0 0.0
2015-Feb-25 15:28N 51°54' E 004°18'0 0.0
2015-Feb-25 14:31N 51°54' E 004°18'0 0.0
2015-Feb-25 13:31N 51°54' E 004°18'0 0.0
2015-Feb-25 12:28N 51°54' E 004°18'0 0.0
2015-Feb-25 11:31N 51°54' E 004°18'0 0.0
2015-Feb-25 10:31N 51°54' E 004°18'0 0.0
2015-Feb-25 09:31N 51°54' E 004°18'0 0.0
2015-Feb-25 08:31N 51°54' E 004°18'0 0.0
2015-Feb-25 07:31N 51°54' E 004°18'0 0.0
2015-Feb-25 06:31N 51°54' E 004°18'0 0.0
2015-Feb-25 05:25N 51°54' E 004°18'0 0.0
2015-Feb-25 04:33N 51°54' E 004°18'2 2.4
2015-Feb-25 03:33N 51°55' E 004°14'8 8.0
2015-Feb-25 02:33N 51°59' E 004°03'9 8.5
2015-Feb-25 01:33N 51°58' E 003°50'2 2.2
2015-Feb-25 00:33N 51°60' E 003°53'8 7.6
2015-Feb-24 23:33N 52°03' E 003°42'1111.1
2015-Feb-24 22:32N 52°09' E 003°26'7510.6
2015-Feb-24 15:29N 53°14' E 004°26'1112.0
2015-Feb-24 14:33N 53°24' E 004°34'1111.0
2015-Feb-24 13:33N 53°31' E 004°48'1111.2
2015-Feb-24 12:33N 53°36' E 005°05'1110.6
2015-Feb-24 11:33N 53°39' E 005°22'1313.0
2015-Feb-24 10:33N 53°43' E 005°43'1212.3
2015-Feb-24 09:33N 53°47' E 006°03'4413.0
2015-Feb-24 06:12N 53°58' E 007°15'913.3
2015-Feb-24 05:33N 53°60' E 007°29'1313.1
2015-Feb-24 04:33N 54°01' E 007°51'1313.2
2015-Feb-24 03:33N 54°00' E 008°13'1212.4
2015-Feb-24 02:34N 53°58' E 008°34'1212.2
2015-Feb-24 01:33N 53°50' E 008°50'1211.8
2015-Feb-24 00:34N 53°53' E 009°10'1414.2
2015-Feb-23 23:33N 53°44' E 009°28'1414.1
2015-Feb-23 22:33N 53°34' E 009°45'8 8.4
2015-Feb-23 21:33N 53°30' E 009°58'1 1.2
2015-Feb-23 20:31N 53°29' E 009°59'0 0.0
2015-Feb-23 19:28N 53°29' E 009°59'0 0.0
2015-Feb-23 18:31N 53°29' E 009°59'0 0.0
2015-Feb-23 17:31N 53°29' E 009°59'0 0.0
2015-Feb-23 16:31N 53°29' E 009°59'0 0.0
2015-Feb-23 15:31N 53°29' E 009°59'0 0.0
2015-Feb-23 14:31N 53°29' E 009°59'0 0.0
2015-Feb-23 13:25N 53°29' E 009°59'0 0.0
2015-Feb-23 12:31N 53°29' E 009°59'0 0.0
2015-Feb-23 11:31N 53°29' E 009°59'0 0.0
2015-Feb-23 10:31N 53°29' E 009°59'0 0.0
2015-Feb-23 09:31N 53°29' E 009°59'0 0.0
2015-Feb-23 08:31N 53°29' E 009°59'0 0.0
2015-Feb-23 07:31N 53°29' E 009°59'0 0.0
2015-Feb-23 06:31N 53°29' E 009°59'0 0.0
2015-Feb-23 05:31N 53°29' E 009°59'0 0.0
2015-Feb-23 04:31N 53°29' E 009°59'0 0.0
2015-Feb-23 03:31N 53°29' E 009°59'0 0.0
2015-Feb-23 02:31N 53°29' E 009°59'0 0.0
2015-Feb-23 01:28N 53°29' E 009°59'0 0.0
2015-Feb-23 00:25N 53°29' E 009°59'0 0.0
2015-Feb-22 23:31N 53°29' E 009°59'0 0.0
2015-Feb-22 22:31N 53°29' E 009°59'0 0.0
2015-Feb-22 21:31N 53°29' E 009°59'0 0.0
2015-Feb-22 20:31N 53°29' E 009°59'0 0.0
2015-Feb-22 19:31N 53°29' E 009°59'0 0.0
2015-Feb-22 18:28N 53°29' E 009°59'0 0.0
2015-Feb-22 17:31N 53°29' E 009°59'0 0.0
2015-Feb-22 16:28N 53°29' E 009°59'0 0.0
2015-Feb-22 15:31N 53°29' E 009°59'0 0.0
2015-Feb-22 14:31N 53°29' E 009°59'0 0.0
2015-Feb-22 13:31N 53°29' E 009°59'0 0.0
2015-Feb-22 12:31N 53°29' E 009°59'0 0.0
2015-Feb-22 11:31N 53°29' E 009°59'0 0.0
2015-Feb-22 10:31N 53°29' E 009°59'0 0.0
2015-Feb-22 09:28N 53°29' E 009°59'0 0.0
2015-Feb-22 08:31N 53°29' E 009°59'0 0.0
2015-Feb-22 07:31N 53°29' E 009°59'0 0.0
2015-Feb-22 06:31N 53°29' E 009°59'0 0.0
2015-Feb-22 05:31N 53°29' E 009°59'0 0.1
2015-Feb-22 04:33N 53°29' E 009°59'3 2.9
2015-Feb-22 03:33N 53°32' E 009°56'9 9.3
2015-Feb-22 02:33N 53°34' E 009°41'1211.6
2015-Feb-22 01:33N 53°43' E 009°29'1110.6
2015-Feb-22 00:33N 53°52' E 009°18'1110.5
2015-Feb-21 23:33N 53°51' E 009°00'1010.5
2015-Feb-21 22:34N 53°53' E 008°43'1312.6
2015-Feb-21 21:34N 53°59' E 008°24'1616.0
2015-Feb-21 20:33N 53°58' E 007°57'1919.2
2015-Feb-21 19:33N 53°54' E 007°25'4018.0
2015-Feb-21 17:22N 53°44' E 006°20'1418.0
2015-Feb-21 16:34N 53°40' E 005°57'1817.8
2015-Feb-21 15:33N 53°34' E 005°29'1717.1
2015-Feb-21 14:34N 53°29' E 005°01'1716.0
2015-Feb-21 13:28N 53°19' E 004°38'3816.3
2015-Feb-21 11:08N 52°45' E 004°07'3215.7
2015-Feb-21 09:06N 52°22' E 003°32'1115.5
2015-Feb-21 08:22N 52°10' E 003°31'1215.1
2015-Feb-21 07:33N 51°59' E 003°23'1615.6
2015-Feb-21 06:33N 51°44' E 003°15'1414.3
2015-Feb-21 05:34N 51°31' E 003°05'8 8.1
2015-Feb-21 04:33N 51°25' E 003°12'1414.0
2015-Feb-21 03:33N 51°26' E 003°34'9 8.7
2015-Feb-21 02:33N 51°21' E 003°47'1010.0
2015-Feb-21 01:33N 51°26' E 004°01'9 9.4
2015-Feb-21 00:33N 51°21' E 004°14'2 2.1
2015-Feb-20 23:34N 51°21' E 004°17'0 0.3
2015-Feb-20 22:34N 51°21' E 004°18'4 4.4
2015-Feb-20 21:33N 51°17' E 004°21'1 1.0
2015-Feb-20 20:33N 51°17' E 004°23'0 0.0
2015-Feb-20 19:33N 51°17' E 004°23'0 0.0
2015-Feb-20 18:33N 51°17' E 004°23'0 0.0
2015-Feb-20 17:33N 51°17' E 004°23'0 0.0
2015-Feb-20 16:33N 51°17' E 004°23'0 0.0
2015-Feb-20 15:33N 51°17' E 004°23'0 0.0
2015-Feb-20 14:33N 51°17' E 004°23'0 0.0
2015-Feb-20 13:33N 51°17' E 004°23'0 0.0
2015-Feb-20 12:33N 51°17' E 004°23'0 0.0
2015-Feb-20 11:33N 51°17' E 004°23'0 0.0
2015-Feb-20 10:32N 51°17' E 004°23'0 0.0
2015-Feb-20 09:32N 51°17' E 004°23'0 0.0
2015-Feb-20 08:32N 51°17' E 004°23'0 0.0
2015-Feb-20 07:32N 51°17' E 004°23'0 0.0
2015-Feb-20 06:29N 51°17' E 004°23'0 0.0
2015-Feb-20 05:29N 51°17' E 004°23'0 0.0
2015-Feb-20 04:32N 51°17' E 004°23'0 0.0
2015-Feb-20 03:32N 51°17' E 004°23'0 0.0
2015-Feb-20 02:32N 51°17' E 004°23'0 0.0
2015-Feb-20 01:29N 51°17' E 004°23'0 0.0
2015-Feb-20 00:32N 51°17' E 004°23'0 0.0
2015-Feb-19 23:32N 51°17' E 004°23'0 0.0
2015-Feb-19 22:32N 51°17' E 004°23'0 0.0
2015-Feb-19 21:32N 51°17' E 004°23'0 0.0
2015-Feb-19 20:32N 51°17' E 004°23'0 0.0
2015-Feb-19 19:32N 51°17' E 004°23'0 0.0
2015-Feb-19 18:32N 51°17' E 004°23'0 0.0
2015-Feb-19 17:32N 51°17' E 004°23'0 0.0
2015-Feb-19 16:32N 51°17' E 004°23'0 0.0
2015-Feb-19 15:32N 51°17' E 004°23'0 0.0
2015-Feb-19 14:32N 51°17' E 004°23'0 0.0
2015-Feb-19 13:32N 51°17' E 004°23'0 0.0
2015-Feb-19 12:32N 51°17' E 004°23'0 0.0
2015-Feb-19 11:32N 51°17' E 004°23'0 0.0
2015-Feb-19 10:32N 51°17' E 004°23'0 0.0
2015-Feb-19 09:32N 51°17' E 004°23'0 0.0
2015-Feb-19 08:32N 51°17' E 004°23'0 0.0
2015-Feb-19 07:32N 51°17' E 004°23'0 0.0
2015-Feb-19 06:32N 51°17' E 004°23'0 0.0
2015-Feb-19 05:32N 51°17' E 004°23'0 0.0
2015-Feb-19 04:32N 51°17' E 004°23'0 0.0
2015-Feb-19 03:32N 51°17' E 004°23'0 0.0
2015-Feb-19 02:32N 51°17' E 004°23'0 0.0
2015-Feb-19 01:32N 51°17' E 004°23'0 0.0
2015-Feb-19 00:32N 51°17' E 004°23'0 0.0
2015-Feb-18 23:32N 51°17' E 004°23'0 0.0
2015-Feb-18 22:32N 51°17' E 004°23'0 0.0
2015-Feb-18 21:32N 51°17' E 004°23'0 0.0
2015-Feb-18 20:32N 51°17' E 004°23'0 0.0
2015-Feb-18 19:32N 51°17' E 004°23'0 0.0
2015-Feb-18 18:32N 51°17' E 004°23'0 0.0
2015-Feb-18 17:29N 51°17' E 004°23'0 0.0
2015-Feb-18 16:32N 51°17' E 004°23'0 0.0
2015-Feb-18 15:32N 51°17' E 004°23'0 0.0
2015-Feb-18 14:32N 51°17' E 004°23'0 0.0
2015-Feb-18 13:32N 51°17' E 004°23'0 0.0
2015-Feb-18 12:32N 51°17' E 004°23'0 0.0
2015-Feb-18 11:29N 51°17' E 004°23'0 0.0
2015-Feb-18 10:32N 51°17' E 004°23'0 0.0
2015-Feb-18 09:32N 51°17' E 004°23'0 0.0
2015-Feb-18 08:32N 51°17' E 004°23'0 0.0
2015-Feb-18 07:32N 51°17' E 004°23'0 0.0
2015-Feb-18 06:32N 51°17' E 004°23'0 0.0
2015-Feb-18 05:32N 51°17' E 004°23'0 0.0
2015-Feb-18 04:32N 51°17' E 004°23'0 0.0
2015-Feb-18 03:32N 51°17' E 004°23'0 0.0
2015-Feb-18 02:29N 51°17' E 004°23'0 0.0
2015-Feb-18 01:29N 51°17' E 004°23'0 0.0
2015-Feb-18 00:32N 51°17' E 004°23'0 0.0
2015-Feb-17 23:32N 51°17' E 004°23'0 0.0
2015-Feb-17 22:32N 51°17' E 004°23'0 0.0
2015-Feb-17 21:32N 51°17' E 004°23'0 0.0
2015-Feb-17 20:32N 51°17' E 004°23'0 0.0
2015-Feb-17 19:32N 51°17' E 004°23'0 0.0
2015-Feb-17 17:32N 51°17' E 004°23'0 0.0
2015-Feb-17 16:32N 51°17' E 004°23'0 0.0
2015-Feb-17 15:32N 51°17' E 004°23'0 0.0
2015-Feb-17 14:32N 51°17' E 004°23'0 0.0
2015-Feb-17 13:32N 51°17' E 004°23'0 0.3
2015-Feb-17 12:34N 51°17' E 004°22'4 4.0
2015-Feb-17 11:34N 51°20' E 004°18'1 0.9
2015-Feb-17 10:34N 51°21' E 004°17'0 0.5
2015-Feb-17 09:33N 51°21' E 004°16'5 4.6
2015-Feb-17 08:33N 51°24' E 004°11'9 9.3
2015-Feb-17 07:33N 51°23' E 003°56'1110.6
2015-Feb-17 06:34N 51°26' E 003°40'8 8.2
2015-Feb-17 05:34N 51°25' E 003°27'9 9.0
2015-Feb-17 04:33N 51°24' E 003°13'10 9.7
2015-Feb-17 03:33N 51°23' E 002°57'1111.1
2015-Feb-17 02:33N 51°22' E 002°40'7 6.7
2015-Feb-17 01:33N 51°22' E 002°29'9 8.6
2015-Feb-17 00:29N 51°17' E 002°16'1011.0
2015-Feb-16 23:33N 51°12' E 002°02'1212.0
2015-Feb-16 22:33N 51°06' E 001°46'1313.1
2015-Feb-16 21:33N 50°56' E 001°31'1814.7
2015-Feb-16 20:20N 50°41' E 001°17'  

Dump ship's entire track history